sensor_id;sensor_type;location;lat;lon;timestamp;P1;durP1;ratioP1;P2;durP2;ratioP2
5343;SDS011;2694;48.954;8.928;2023-11-19T00:00:13;4.07;;;2.13;;
5343;SDS011;2694;48.954;8.928;2023-11-19T00:02:41;6.53;;;3.10;;
5343;SDS011;2694;48.954;8.928;2023-11-19T00:05:10;6.63;;;3.30;;
5343;SDS011;2694;48.954;8.928;2023-11-19T00:07:37;7.22;;;3.15;;
5343;SDS011;2694;48.954;8.928;2023-11-19T00:10:07;4.65;;;2.70;;
5343;SDS011;2694;48.954;8.928;2023-11-19T00:12:36;4.07;;;2.70;;
5343;SDS011;2694;48.954;8.928;2023-11-19T00:15:04;4.78;;;2.80;;
5343;SDS011;2694;48.954;8.928;2023-11-19T00:17:31;7.00;;;3.00;;
5343;SDS011;2694;48.954;8.928;2023-11-19T00:19:58;6.22;;;2.80;;
5343;SDS011;2694;48.954;8.928;2023-11-19T00:22:26;5.13;;;2.60;;
5343;SDS011;2694;48.954;8.928;2023-11-19T00:24:53;5.57;;;2.85;;
5343;SDS011;2694;48.954;8.928;2023-11-19T00:27:20;6.80;;;2.90;;
5343;SDS011;2694;48.954;8.928;2023-11-19T00:29:47;6.50;;;2.72;;
5343;SDS011;2694;48.954;8.928;2023-11-19T00:32:14;5.85;;;2.78;;
5343;SDS011;2694;48.954;8.928;2023-11-19T00:34:43;3.72;;;2.40;;
5343;SDS011;2694;48.954;8.928;2023-11-19T00:37:10;6.63;;;3.30;;
5343;SDS011;2694;48.954;8.928;2023-11-19T00:39:39;6.03;;;2.88;;
5343;SDS011;2694;48.954;8.928;2023-11-19T00:42:06;6.75;;;3.22;;
5343;SDS011;2694;48.954;8.928;2023-11-19T00:44:35;5.53;;;3.10;;
5343;SDS011;2694;48.954;8.928;2023-11-19T00:47:03;4.63;;;3.05;;
5343;SDS011;2694;48.954;8.928;2023-11-19T00:49:30;6.70;;;3.03;;
5343;SDS011;2694;48.954;8.928;2023-11-19T00:51:58;5.72;;;3.00;;
5343;SDS011;2694;48.954;8.928;2023-11-19T00:54:25;3.83;;;2.45;;
5343;SDS011;2694;48.954;8.928;2023-11-19T00:56:53;3.90;;;2.47;;
5343;SDS011;2694;48.954;8.928;2023-11-19T00:59:21;5.63;;;2.55;;
5343;SDS011;2694;48.954;8.928;2023-11-19T01:01:48;4.47;;;2.70;;
5343;SDS011;2694;48.954;8.928;2023-11-19T01:04:16;4.97;;;2.97;;
5343;SDS011;2694;48.954;8.928;2023-11-19T01:06:43;4.10;;;2.60;;
5343;SDS011;2694;48.954;8.928;2023-11-19T01:09:10;4.60;;;2.40;;
5343;SDS011;2694;48.954;8.928;2023-11-19T01:11:36;6.25;;;3.53;;
5343;SDS011;2694;48.954;8.928;2023-11-19T01:14:05;6.60;;;3.03;;
5343;SDS011;2694;48.954;8.928;2023-11-19T01:16:32;6.20;;;3.38;;
5343;SDS011;2694;48.954;8.928;2023-11-19T01:18:59;5.88;;;3.00;;
5343;SDS011;2694;48.954;8.928;2023-11-19T01:21:29;5.70;;;2.80;;
5343;SDS011;2694;48.954;8.928;2023-11-19T01:23:56;4.80;;;2.53;;
5343;SDS011;2694;48.954;8.928;2023-11-19T01:26:24;4.90;;;2.70;;
5343;SDS011;2694;48.954;8.928;2023-11-19T01:28:51;4.88;;;2.70;;
5343;SDS011;2694;48.954;8.928;2023-11-19T01:31:19;5.45;;;2.97;;
5343;SDS011;2694;48.954;8.928;2023-11-19T01:33:46;5.70;;;2.70;;
5343;SDS011;2694;48.954;8.928;2023-11-19T01:36:13;5.50;;;3.00;;
5343;SDS011;2694;48.954;8.928;2023-11-19T01:38:40;7.13;;;3.35;;
5343;SDS011;2694;48.954;8.928;2023-11-19T01:41:07;4.70;;;3.00;;
5343;SDS011;2694;48.954;8.928;2023-11-19T01:43:35;3.90;;;2.92;;
5343;SDS011;2694;48.954;8.928;2023-11-19T01:46:04;5.43;;;2.70;;
5343;SDS011;2694;48.954;8.928;2023-11-19T01:48:33;5.10;;;3.00;;
5343;SDS011;2694;48.954;8.928;2023-11-19T01:51:01;6.00;;;3.20;;
5343;SDS011;2694;48.954;8.928;2023-11-19T01:53:30;5.63;;;3.00;;
5343;SDS011;2694;48.954;8.928;2023-11-19T01:55:58;6.20;;;3.30;;
5343;SDS011;2694;48.954;8.928;2023-11-19T01:58:25;7.83;;;3.40;;
5343;SDS011;2694;48.954;8.928;2023-11-19T02:00:52;5.28;;;3.20;;
5343;SDS011;2694;48.954;8.928;2023-11-19T02:03:19;4.93;;;3.13;;
5343;SDS011;2694;48.954;8.928;2023-11-19T02:05:49;5.72;;;3.35;;
5343;SDS011;2694;48.954;8.928;2023-11-19T02:08:18;8.70;;;3.80;;
5343;SDS011;2694;48.954;8.928;2023-11-19T02:10:45;7.30;;;3.42;;
5343;SDS011;2694;48.954;8.928;2023-11-19T02:13:12;7.75;;;3.30;;
5343;SDS011;2694;48.954;8.928;2023-11-19T02:15:41;5.60;;;2.90;;
5343;SDS011;2694;48.954;8.928;2023-11-19T02:18:18;7.80;;;3.50;;
5343;SDS011;2694;48.954;8.928;2023-11-19T02:20:48;5.72;;;3.25;;
5343;SDS011;2694;48.954;8.928;2023-11-19T02:23:16;4.95;;;3.30;;
5343;SDS011;2694;48.954;8.928;2023-11-19T02:25:47;5.60;;;3.60;;
5343;SDS011;2694;48.954;8.928;2023-11-19T02:28:22;8.57;;;3.50;;
5343;SDS011;2694;48.954;8.928;2023-11-19T02:30:50;5.78;;;3.20;;
5343;SDS011;2694;48.954;8.928;2023-11-19T02:33:16;6.93;;;3.50;;
5343;SDS011;2694;48.954;8.928;2023-11-19T02:35:43;5.70;;;2.90;;
5343;SDS011;2694;48.954;8.928;2023-11-19T02:38:11;5.10;;;3.13;;
5343;SDS011;2694;48.954;8.928;2023-11-19T02:40:39;6.28;;;3.10;;
5343;SDS011;2694;48.954;8.928;2023-11-19T02:43:06;4.93;;;3.15;;
5343;SDS011;2694;48.954;8.928;2023-11-19T02:45:36;5.75;;;3.10;;
5343;SDS011;2694;48.954;8.928;2023-11-19T02:48:03;6.80;;;3.70;;
5343;SDS011;2694;48.954;8.928;2023-11-19T02:50:31;6.18;;;3.70;;
5343;SDS011;2694;48.954;8.928;2023-11-19T02:52:58;6.00;;;3.50;;
5343;SDS011;2694;48.954;8.928;2023-11-19T02:55:26;7.05;;;3.78;;
5343;SDS011;2694;48.954;8.928;2023-11-19T02:57:56;6.38;;;3.60;;
5343;SDS011;2694;48.954;8.928;2023-11-19T03:00:24;7.28;;;3.95;;
5343;SDS011;2694;48.954;8.928;2023-11-19T03:03:00;5.63;;;3.50;;
5343;SDS011;2694;48.954;8.928;2023-11-19T03:05:35;7.35;;;4.28;;
5343;SDS011;2694;48.954;8.928;2023-11-19T03:08:02;8.02;;;3.80;;
5343;SDS011;2694;48.954;8.928;2023-11-19T03:10:29;7.18;;;4.35;;
5343;SDS011;2694;48.954;8.928;2023-11-19T03:12:56;7.50;;;4.70;;
5343;SDS011;2694;48.954;8.928;2023-11-19T03:15:22;31.60;;;13.50;;
5343;SDS011;2694;48.954;8.928;2023-11-19T03:17:49;9.50;;;5.40;;
5343;SDS011;2694;48.954;8.928;2023-11-19T03:20:18;8.77;;;5.43;;
5343;SDS011;2694;48.954;8.928;2023-11-19T03:22:46;9.70;;;5.57;;
5343;SDS011;2694;48.954;8.928;2023-11-19T03:25:12;11.88;;;5.40;;
5343;SDS011;2694;48.954;8.928;2023-11-19T03:27:39;10.90;;;5.00;;
5343;SDS011;2694;48.954;8.928;2023-11-19T03:30:08;8.00;;;4.80;;
5343;SDS011;2694;48.954;8.928;2023-11-19T03:32:35;7.25;;;4.93;;
5343;SDS011;2694;48.954;8.928;2023-11-19T03:35:04;7.30;;;4.50;;
5343;SDS011;2694;48.954;8.928;2023-11-19T03:37:33;6.68;;;4.50;;
5343;SDS011;2694;48.954;8.928;2023-11-19T03:40:00;8.00;;;5.07;;
5343;SDS011;2694;48.954;8.928;2023-11-19T03:42:28;5.60;;;4.05;;
5343;SDS011;2694;48.954;8.928;2023-11-19T03:44:55;8.20;;;4.95;;
5343;SDS011;2694;48.954;8.928;2023-11-19T03:47:22;7.75;;;4.45;;
5343;SDS011;2694;48.954;8.928;2023-11-19T03:49:50;8.82;;;4.82;;
5343;SDS011;2694;48.954;8.928;2023-11-19T03:52:17;7.63;;;4.80;;
5343;SDS011;2694;48.954;8.928;2023-11-19T03:54:46;7.15;;;4.45;;
5343;SDS011;2694;48.954;8.928;2023-11-19T03:57:13;6.30;;;4.38;;
5343;SDS011;2694;48.954;8.928;2023-11-19T03:59:40;6.57;;;4.80;;
5343;SDS011;2694;48.954;8.928;2023-11-19T04:02:07;7.30;;;4.57;;
5343;SDS011;2694;48.954;8.928;2023-11-19T04:04:35;6.75;;;4.45;;
5343;SDS011;2694;48.954;8.928;2023-11-19T04:07:02;5.97;;;4.38;;
5343;SDS011;2694;48.954;8.928;2023-11-19T04:09:29;6.25;;;4.45;;
5343;SDS011;2694;48.954;8.928;2023-11-19T04:11:59;16.08;;;8.05;;
5343;SDS011;2694;48.954;8.928;2023-11-19T04:14:26;16.63;;;8.60;;
5343;SDS011;2694;48.954;8.928;2023-11-19T04:16:53;10.25;;;5.63;;
5343;SDS011;2694;48.954;8.928;2023-11-19T04:19:20;9.20;;;4.65;;
5343;SDS011;2694;48.954;8.928;2023-11-19T04:21:48;8.20;;;4.57;;
5343;SDS011;2694;48.954;8.928;2023-11-19T04:24:15;7.15;;;4.57;;
5343;SDS011;2694;48.954;8.928;2023-11-19T04:26:42;8.00;;;4.90;;
5343;SDS011;2694;48.954;8.928;2023-11-19T04:29:11;8.27;;;4.70;;
5343;SDS011;2694;48.954;8.928;2023-11-19T04:31:39;10.00;;;5.90;;
5343;SDS011;2694;48.954;8.928;2023-11-19T04:34:07;8.45;;;4.82;;
5343;SDS011;2694;48.954;8.928;2023-11-19T04:36:34;3.40;;;2.08;;
5343;SDS011;2694;48.954;8.928;2023-11-19T04:39:00;1.40;;;0.80;;
5343;SDS011;2694;48.954;8.928;2023-11-19T04:41:27;1.33;;;0.50;;
5343;SDS011;2694;48.954;8.928;2023-11-19T04:43:54;0.70;;;0.30;;
5343;SDS011;2694;48.954;8.928;2023-11-19T04:46:22;0.70;;;0.40;;
5343;SDS011;2694;48.954;8.928;2023-11-19T04:48:49;0.70;;;0.30;;
5343;SDS011;2694;48.954;8.928;2023-11-19T04:51:16;0.70;;;0.30;;
5343;SDS011;2694;48.954;8.928;2023-11-19T04:53:43;0.80;;;0.30;;
5343;SDS011;2694;48.954;8.928;2023-11-19T04:56:10;3.42;;;1.10;;
5343;SDS011;2694;48.954;8.928;2023-11-19T04:58:38;0.80;;;0.40;;
5343;SDS011;2694;48.954;8.928;2023-11-19T05:01:05;1.00;;;0.50;;
5343;SDS011;2694;48.954;8.928;2023-11-19T05:03:34;0.50;;;0.20;;
5343;SDS011;2694;48.954;8.928;2023-11-19T05:06:01;0.70;;;0.30;;
5343;SDS011;2694;48.954;8.928;2023-11-19T05:08:28;1.80;;;0.30;;
5343;SDS011;2694;48.954;8.928;2023-11-19T05:10:55;1.00;;;0.30;;
5343;SDS011;2694;48.954;8.928;2023-11-19T05:13:22;0.90;;;0.30;;
5343;SDS011;2694;48.954;8.928;2023-11-19T05:15:49;0.90;;;0.30;;
5343;SDS011;2694;48.954;8.928;2023-11-19T05:18:17;1.00;;;0.30;;
5343;SDS011;2694;48.954;8.928;2023-11-19T05:20:45;0.80;;;0.30;;
5343;SDS011;2694;48.954;8.928;2023-11-19T05:23:12;1.00;;;0.30;;
5343;SDS011;2694;48.954;8.928;2023-11-19T05:25:39;0.60;;;0.30;;
5343;SDS011;2694;48.954;8.928;2023-11-19T05:28:06;1.90;;;0.30;;
5343;SDS011;2694;48.954;8.928;2023-11-19T05:30:33;0.90;;;0.20;;
5343;SDS011;2694;48.954;8.928;2023-11-19T05:33:00;1.00;;;0.40;;
5343;SDS011;2694;48.954;8.928;2023-11-19T05:35:27;0.80;;;0.30;;
5343;SDS011;2694;48.954;8.928;2023-11-19T05:37:55;2.80;;;0.60;;
5343;SDS011;2694;48.954;8.928;2023-11-19T05:40:22;1.55;;;0.40;;
5343;SDS011;2694;48.954;8.928;2023-11-19T05:42:49;0.50;;;0.28;;
5343;SDS011;2694;48.954;8.928;2023-11-19T05:45:16;2.10;;;0.40;;
5343;SDS011;2694;48.954;8.928;2023-11-19T05:47:43;1.20;;;0.60;;
5343;SDS011;2694;48.954;8.928;2023-11-19T05:50:10;0.88;;;0.40;;
5343;SDS011;2694;48.954;8.928;2023-11-19T05:52:37;0.82;;;0.52;;
5343;SDS011;2694;48.954;8.928;2023-11-19T05:55:05;1.00;;;0.50;;
5343;SDS011;2694;48.954;8.928;2023-11-19T05:57:35;2.38;;;0.40;;
5343;SDS011;2694;48.954;8.928;2023-11-19T06:00:02;2.05;;;0.30;;
5343;SDS011;2694;48.954;8.928;2023-11-19T06:02:32;1.00;;;0.30;;
5343;SDS011;2694;48.954;8.928;2023-11-19T06:04:59;4.95;;;0.50;;
5343;SDS011;2694;48.954;8.928;2023-11-19T06:07:26;0.70;;;0.43;;
5343;SDS011;2694;48.954;8.928;2023-11-19T06:09:53;1.00;;;0.50;;
5343;SDS011;2694;48.954;8.928;2023-11-19T06:12:22;2.20;;;0.80;;
5343;SDS011;2694;48.954;8.928;2023-11-19T06:14:48;1.17;;;0.50;;
5343;SDS011;2694;48.954;8.928;2023-11-19T06:17:15;4.03;;;1.10;;
5343;SDS011;2694;48.954;8.928;2023-11-19T06:19:42;1.03;;;0.40;;
5343;SDS011;2694;48.954;8.928;2023-11-19T06:22:10;1.00;;;0.60;;
5343;SDS011;2694;48.954;8.928;2023-11-19T06:24:37;1.17;;;0.68;;
5343;SDS011;2694;48.954;8.928;2023-11-19T06:27:04;3.13;;;0.40;;
5343;SDS011;2694;48.954;8.928;2023-11-19T06:29:32;1.52;;;0.50;;
5343;SDS011;2694;48.954;8.928;2023-11-19T06:31:59;1.00;;;0.40;;
5343;SDS011;2694;48.954;8.928;2023-11-19T06:34:26;0.90;;;0.50;;
5343;SDS011;2694;48.954;8.928;2023-11-19T06:36:53;2.83;;;0.70;;
5343;SDS011;2694;48.954;8.928;2023-11-19T06:39:20;0.90;;;0.50;;
5343;SDS011;2694;48.954;8.928;2023-11-19T06:41:47;1.38;;;0.40;;
5343;SDS011;2694;48.954;8.928;2023-11-19T06:44:14;1.37;;;0.40;;
5343;SDS011;2694;48.954;8.928;2023-11-19T06:46:42;0.90;;;0.40;;
5343;SDS011;2694;48.954;8.928;2023-11-19T06:49:09;3.00;;;0.60;;
5343;SDS011;2694;48.954;8.928;2023-11-19T06:51:40;1.35;;;0.70;;
5343;SDS011;2694;48.954;8.928;2023-11-19T06:54:07;1.90;;;0.47;;
5343;SDS011;2694;48.954;8.928;2023-11-19T06:56:34;1.65;;;0.80;;
5343;SDS011;2694;48.954;8.928;2023-11-19T06:59:02;7.10;;;3.57;;
5343;SDS011;2694;48.954;8.928;2023-11-19T07:01:30;0.90;;;0.40;;
5343;SDS011;2694;48.954;8.928;2023-11-19T07:04:02;0.80;;;0.30;;
5343;SDS011;2694;48.954;8.928;2023-11-19T07:06:34;1.60;;;0.30;;
5343;SDS011;2694;48.954;8.928;2023-11-19T07:09:01;1.20;;;0.40;;
5343;SDS011;2694;48.954;8.928;2023-11-19T07:11:34;0.70;;;0.40;;
5343;SDS011;2694;48.954;8.928;2023-11-19T07:14:01;0.88;;;0.30;;
5343;SDS011;2694;48.954;8.928;2023-11-19T07:16:29;1.08;;;0.40;;
5343;SDS011;2694;48.954;8.928;2023-11-19T07:18:56;2.30;;;0.30;;
5343;SDS011;2694;48.954;8.928;2023-11-19T07:21:25;0.60;;;0.20;;
5343;SDS011;2694;48.954;8.928;2023-11-19T07:23:53;0.80;;;0.30;;
5343;SDS011;2694;48.954;8.928;2023-11-19T07:26:20;1.17;;;0.30;;
5343;SDS011;2694;48.954;8.928;2023-11-19T07:28:47;1.45;;;0.45;;
5343;SDS011;2694;48.954;8.928;2023-11-19T07:31:14;1.00;;;0.40;;
5343;SDS011;2694;48.954;8.928;2023-11-19T07:33:41;1.40;;;0.30;;
5343;SDS011;2694;48.954;8.928;2023-11-19T07:36:09;0.90;;;0.30;;
5343;SDS011;2694;48.954;8.928;2023-11-19T07:38:37;0.98;;;0.30;;
5343;SDS011;2694;48.954;8.928;2023-11-19T07:41:04;1.80;;;0.80;;
5343;SDS011;2694;48.954;8.928;2023-11-19T07:43:34;1.13;;;0.60;;
5343;SDS011;2694;48.954;8.928;2023-11-19T07:46:01;1.05;;;0.55;;
5343;SDS011;2694;48.954;8.928;2023-11-19T07:48:29;1.17;;;0.40;;
5343;SDS011;2694;48.954;8.928;2023-11-19T07:50:56;2.35;;;0.60;;
5343;SDS011;2694;48.954;8.928;2023-11-19T07:53:23;2.42;;;0.80;;
5343;SDS011;2694;48.954;8.928;2023-11-19T07:55:51;1.73;;;0.90;;
5343;SDS011;2694;48.954;8.928;2023-11-19T07:58:24;1.75;;;0.70;;
5343;SDS011;2694;48.954;8.928;2023-11-19T08:00:51;2.00;;;0.70;;
5343;SDS011;2694;48.954;8.928;2023-11-19T08:03:18;6.05;;;1.00;;
5343;SDS011;2694;48.954;8.928;2023-11-19T08:05:47;2.60;;;0.50;;
5343;SDS011;2694;48.954;8.928;2023-11-19T08:08:14;1.00;;;0.57;;
5343;SDS011;2694;48.954;8.928;2023-11-19T08:10:41;1.25;;;0.60;;
5343;SDS011;2694;48.954;8.928;2023-11-19T08:13:11;2.80;;;0.80;;
5343;SDS011;2694;48.954;8.928;2023-11-19T08:15:37;0.93;;;0.50;;
5343;SDS011;2694;48.954;8.928;2023-11-19T08:18:05;1.60;;;0.60;;
5343;SDS011;2694;48.954;8.928;2023-11-19T08:20:32;2.83;;;0.60;;
5343;SDS011;2694;48.954;8.928;2023-11-19T08:22:59;1.00;;;0.40;;
5343;SDS011;2694;48.954;8.928;2023-11-19T08:25:28;3.07;;;0.83;;
5343;SDS011;2694;48.954;8.928;2023-11-19T08:27:55;6.68;;;0.95;;
5343;SDS011;2694;48.954;8.928;2023-11-19T08:30:23;2.30;;;0.57;;
5343;SDS011;2694;48.954;8.928;2023-11-19T08:32:50;1.60;;;0.50;;
5343;SDS011;2694;48.954;8.928;2023-11-19T08:35:17;2.30;;;0.40;;
5343;SDS011;2694;48.954;8.928;2023-11-19T08:39:03;3.90;;;0.50;;
5343;SDS011;2694;48.954;8.928;2023-11-19T08:41:03;2.13;;;0.47;;
5343;SDS011;2694;48.954;8.928;2023-11-19T08:43:31;2.45;;;0.30;;
5343;SDS011;2694;48.954;8.928;2023-11-19T08:45:59;1.27;;;0.30;;
5343;SDS011;2694;48.954;8.928;2023-11-19T08:48:26;1.90;;;0.60;;
5343;SDS011;2694;48.954;8.928;2023-11-19T08:50:53;10.10;;;4.00;;
5343;SDS011;2694;48.954;8.928;2023-11-19T08:53:19;10.32;;;4.65;;
5343;SDS011;2694;48.954;8.928;2023-11-19T08:55:47;2.35;;;1.08;;
5343;SDS011;2694;48.954;8.928;2023-11-19T08:58:14;1.08;;;0.30;;
5343;SDS011;2694;48.954;8.928;2023-11-19T09:00:41;2.17;;;0.70;;
5343;SDS011;2694;48.954;8.928;2023-11-19T09:03:09;1.75;;;0.50;;
5343;SDS011;2694;48.954;8.928;2023-11-19T09:05:36;2.50;;;0.60;;
5343;SDS011;2694;48.954;8.928;2023-11-19T09:08:03;2.33;;;0.70;;
5343;SDS011;2694;48.954;8.928;2023-11-19T09:10:31;3.55;;;0.82;;
5343;SDS011;2694;48.954;8.928;2023-11-19T09:12:58;2.70;;;0.68;;
5343;SDS011;2694;48.954;8.928;2023-11-19T09:15:25;2.30;;;0.40;;
5343;SDS011;2694;48.954;8.928;2023-11-19T09:17:52;1.60;;;1.02;;
5343;SDS011;2694;48.954;8.928;2023-11-19T09:20:20;0.80;;;0.50;;
5343;SDS011;2694;48.954;8.928;2023-11-19T09:22:47;0.75;;;0.40;;
5343;SDS011;2694;48.954;8.928;2023-11-19T09:25:13;3.13;;;0.60;;
5343;SDS011;2694;48.954;8.928;2023-11-19T09:27:42;1.00;;;0.43;;
5343;SDS011;2694;48.954;8.928;2023-11-19T09:30:09;2.60;;;0.50;;
5343;SDS011;2694;48.954;8.928;2023-11-19T09:32:36;2.88;;;1.15;;
5343;SDS011;2694;48.954;8.928;2023-11-19T09:35:04;3.22;;;1.65;;
5343;SDS011;2694;48.954;8.928;2023-11-19T09:37:33;2.50;;;0.93;;
5343;SDS011;2694;48.954;8.928;2023-11-19T09:40:00;1.30;;;0.60;;
5343;SDS011;2694;48.954;8.928;2023-11-19T09:42:27;1.83;;;0.50;;
5343;SDS011;2694;48.954;8.928;2023-11-19T09:44:54;2.10;;;0.50;;
5343;SDS011;2694;48.954;8.928;2023-11-19T09:47:22;2.05;;;0.80;;
5343;SDS011;2694;48.954;8.928;2023-11-19T09:49:52;1.95;;;0.70;;
5343;SDS011;2694;48.954;8.928;2023-11-19T09:52:20;3.42;;;1.67;;
5343;SDS011;2694;48.954;8.928;2023-11-19T09:54:48;7.00;;;2.80;;
5343;SDS011;2694;48.954;8.928;2023-11-19T09:57:15;1.50;;;0.60;;
5343;SDS011;2694;48.954;8.928;2023-11-19T09:59:43;1.00;;;0.40;;
5343;SDS011;2694;48.954;8.928;2023-11-19T10:02:12;2.50;;;0.50;;
5343;SDS011;2694;48.954;8.928;2023-11-19T10:04:40;2.70;;;0.38;;
5343;SDS011;2694;48.954;8.928;2023-11-19T10:07:08;1.75;;;0.50;;
5343;SDS011;2694;48.954;8.928;2023-11-19T10:09:35;1.35;;;0.50;;
5343;SDS011;2694;48.954;8.928;2023-11-19T10:12:04;3.70;;;0.70;;
5343;SDS011;2694;48.954;8.928;2023-11-19T10:14:31;1.40;;;0.40;;
5343;SDS011;2694;48.954;8.928;2023-11-19T10:17:02;3.22;;;0.70;;
5343;SDS011;2694;48.954;8.928;2023-11-19T10:19:30;1.42;;;0.60;;
5343;SDS011;2694;48.954;8.928;2023-11-19T10:22:01;6.47;;;0.80;;
5343;SDS011;2694;48.954;8.928;2023-11-19T10:24:31;2.33;;;0.80;;
5343;SDS011;2694;48.954;8.928;2023-11-19T10:26:59;2.40;;;0.63;;
5343;SDS011;2694;48.954;8.928;2023-11-19T10:29:27;3.05;;;0.60;;
5343;SDS011;2694;48.954;8.928;2023-11-19T10:31:55;2.83;;;0.80;;
5343;SDS011;2694;48.954;8.928;2023-11-19T10:34:24;1.55;;;0.77;;
5343;SDS011;2694;48.954;8.928;2023-11-19T10:36:52;2.10;;;0.80;;
5343;SDS011;2694;48.954;8.928;2023-11-19T10:39:19;3.03;;;0.90;;
5343;SDS011;2694;48.954;8.928;2023-11-19T10:41:48;4.87;;;0.60;;
5343;SDS011;2694;48.954;8.928;2023-11-19T10:47:09;1.40;;;0.50;;
5343;SDS011;2694;48.954;8.928;2023-11-19T10:49:38;1.80;;;0.30;;
5343;SDS011;2694;48.954;8.928;2023-11-19T10:52:05;3.00;;;0.30;;
5343;SDS011;2694;48.954;8.928;2023-11-19T10:54:35;1.87;;;0.40;;
5343;SDS011;2694;48.954;8.928;2023-11-19T10:57:07;1.50;;;0.55;;
5343;SDS011;2694;48.954;8.928;2023-11-19T10:59:38;3.97;;;0.85;;
5343;SDS011;2694;48.954;8.928;2023-11-19T11:02:07;3.70;;;1.10;;
5343;SDS011;2694;48.954;8.928;2023-11-19T11:04:41;2.50;;;0.73;;
5343;SDS011;2694;48.954;8.928;2023-11-19T11:07:08;2.90;;;0.50;;
5343;SDS011;2694;48.954;8.928;2023-11-19T11:09:36;1.58;;;0.60;;
5343;SDS011;2694;48.954;8.928;2023-11-19T11:12:03;2.30;;;0.40;;
5343;SDS011;2694;48.954;8.928;2023-11-19T11:14:32;4.47;;;1.15;;
5343;SDS011;2694;48.954;8.928;2023-11-19T11:17:05;2.05;;;0.60;;
5343;SDS011;2694;48.954;8.928;2023-11-19T11:19:36;3.47;;;1.40;;
5343;SDS011;2694;48.954;8.928;2023-11-19T11:22:04;3.28;;;0.68;;
5343;SDS011;2694;48.954;8.928;2023-11-19T11:24:40;3.47;;;0.50;;
5343;SDS011;2694;48.954;8.928;2023-11-19T11:27:40;2.70;;;0.50;;
5343;SDS011;2694;48.954;8.928;2023-11-19T11:30:19;2.00;;;0.60;;
5343;SDS011;2694;48.954;8.928;2023-11-19T11:32:57;1.65;;;0.55;;
5343;SDS011;2694;48.954;8.928;2023-11-19T11:35:33;2.35;;;0.60;;
5343;SDS011;2694;48.954;8.928;2023-11-19T11:38:10;2.90;;;0.90;;
5343;SDS011;2694;48.954;8.928;2023-11-19T11:40:38;1.77;;;0.68;;
5343;SDS011;2694;48.954;8.928;2023-11-19T11:43:05;3.30;;;0.85;;
5343;SDS011;2694;48.954;8.928;2023-11-19T11:49:27;2.22;;;0.60;;
5343;SDS011;2694;48.954;8.928;2023-11-19T11:52:02;2.80;;;0.60;;
5343;SDS011;2694;48.954;8.928;2023-11-19T11:54:30;2.55;;;0.70;;
5343;SDS011;2694;48.954;8.928;2023-11-19T11:57:01;1.73;;;0.60;;
5343;SDS011;2694;48.954;8.928;2023-11-19T12:02:20;2.95;;;0.68;;
5343;SDS011;2694;48.954;8.928;2023-11-19T12:04:49;2.03;;;0.70;;
5343;SDS011;2694;48.954;8.928;2023-11-19T12:07:18;2.90;;;0.63;;
5343;SDS011;2694;48.954;8.928;2023-11-19T12:09:47;2.28;;;0.50;;
5343;SDS011;2694;48.954;8.928;2023-11-19T12:12:18;1.55;;;0.55;;
5343;SDS011;2694;48.954;8.928;2023-11-19T12:15:00;2.00;;;0.80;;
5343;SDS011;2694;48.954;8.928;2023-11-19T12:20:21;5.10;;;0.70;;
5343;SDS011;2694;48.954;8.928;2023-11-19T12:22:50;1.13;;;0.50;;
5343;SDS011;2694;48.954;8.928;2023-11-19T12:25:18;2.90;;;0.80;;
5343;SDS011;2694;48.954;8.928;2023-11-19T12:27:47;3.00;;;0.80;;
5343;SDS011;2694;48.954;8.928;2023-11-19T12:30:17;2.05;;;0.40;;
5343;SDS011;2694;48.954;8.928;2023-11-19T12:32:45;2.00;;;0.50;;
5343;SDS011;2694;48.954;8.928;2023-11-19T12:35:12;3.30;;;0.70;;
5343;SDS011;2694;48.954;8.928;2023-11-19T12:37:40;5.25;;;0.68;;
5343;SDS011;2694;48.954;8.928;2023-11-19T12:40:15;1.80;;;0.50;;
5343;SDS011;2694;48.954;8.928;2023-11-19T12:45:10;1.70;;;0.40;;
5343;SDS011;2694;48.954;8.928;2023-11-19T12:47:38;4.30;;;0.50;;
5343;SDS011;2694;48.954;8.928;2023-11-19T12:50:06;2.30;;;0.60;;
5343;SDS011;2694;48.954;8.928;2023-11-19T12:52:34;4.20;;;0.60;;
5343;SDS011;2694;48.954;8.928;2023-11-19T12:55:01;3.13;;;0.50;;
5343;SDS011;2694;48.954;8.928;2023-11-19T12:57:39;4.30;;;0.50;;
5343;SDS011;2694;48.954;8.928;2023-11-19T13:00:17;2.95;;;0.70;;
5343;SDS011;2694;48.954;8.928;2023-11-19T13:02:46;5.75;;;0.63;;
5343;SDS011;2694;48.954;8.928;2023-11-19T13:05:21;2.47;;;0.70;;
5343;SDS011;2694;48.954;8.928;2023-11-19T13:07:58;2.93;;;1.00;;
5343;SDS011;2694;48.954;8.928;2023-11-19T13:10:25;2.13;;;1.00;;
5343;SDS011;2694;48.954;8.928;2023-11-19T13:13:01;6.07;;;2.17;;
5343;SDS011;2694;48.954;8.928;2023-11-19T13:15:31;8.45;;;3.50;;
5343;SDS011;2694;48.954;8.928;2023-11-19T13:17:58;7.25;;;1.90;;
5343;SDS011;2694;48.954;8.928;2023-11-19T13:20:25;2.22;;;0.82;;
5343;SDS011;2694;48.954;8.928;2023-11-19T13:22:54;2.20;;;0.90;;
5343;SDS011;2694;48.954;8.928;2023-11-19T13:25:21;2.75;;;1.15;;
5343;SDS011;2694;48.954;8.928;2023-11-19T13:27:48;4.40;;;0.90;;
5343;SDS011;2694;48.954;8.928;2023-11-19T13:30:17;2.45;;;0.70;;
5343;SDS011;2694;48.954;8.928;2023-11-19T13:32:44;4.13;;;1.00;;
5343;SDS011;2694;48.954;8.928;2023-11-19T13:35:11;7.70;;;1.15;;
5343;SDS011;2694;48.954;8.928;2023-11-19T13:37:38;6.38;;;0.80;;
5343;SDS011;2694;48.954;8.928;2023-11-19T13:40:06;4.03;;;1.05;;
5343;SDS011;2694;48.954;8.928;2023-11-19T13:42:35;3.80;;;1.08;;
5343;SDS011;2694;48.954;8.928;2023-11-19T13:45:06;3.40;;;0.70;;
5343;SDS011;2694;48.954;8.928;2023-11-19T13:47:37;5.10;;;1.00;;
5343;SDS011;2694;48.954;8.928;2023-11-19T13:50:06;3.70;;;0.70;;
5343;SDS011;2694;48.954;8.928;2023-11-19T13:52:34;2.22;;;1.05;;
5343;SDS011;2694;48.954;8.928;2023-11-19T13:55:03;2.78;;;1.08;;
5343;SDS011;2694;48.954;8.928;2023-11-19T13:57:32;7.00;;;1.50;;
5343;SDS011;2694;48.954;8.928;2023-11-19T13:59:59;6.00;;;2.60;;
5343;SDS011;2694;48.954;8.928;2023-11-19T14:02:28;8.83;;;2.80;;
5343;SDS011;2694;48.954;8.928;2023-11-19T14:04:56;7.40;;;2.50;;
5343;SDS011;2694;48.954;8.928;2023-11-19T14:07:23;3.00;;;0.70;;
5343;SDS011;2694;48.954;8.928;2023-11-19T14:09:50;5.00;;;0.90;;
5343;SDS011;2694;48.954;8.928;2023-11-19T14:12:17;2.60;;;0.60;;
5343;SDS011;2694;48.954;8.928;2023-11-19T14:14:44;4.50;;;0.70;;
5343;SDS011;2694;48.954;8.928;2023-11-19T14:17:11;1.98;;;0.60;;
5343;SDS011;2694;48.954;8.928;2023-11-19T14:19:38;2.17;;;0.52;;
5343;SDS011;2694;48.954;8.928;2023-11-19T14:22:06;2.17;;;0.50;;
5343;SDS011;2694;48.954;8.928;2023-11-19T14:24:35;4.57;;;0.60;;
5343;SDS011;2694;48.954;8.928;2023-11-19T14:27:05;1.55;;;0.70;;
5343;SDS011;2694;48.954;8.928;2023-11-19T14:29:32;1.60;;;0.70;;
5343;SDS011;2694;48.954;8.928;2023-11-19T14:32:00;5.45;;;2.10;;
5343;SDS011;2694;48.954;8.928;2023-11-19T14:34:27;2.70;;;0.75;;
5343;SDS011;2694;48.954;8.928;2023-11-19T14:36:54;2.35;;;0.75;;
5343;SDS011;2694;48.954;8.928;2023-11-19T14:39:23;3.60;;;0.70;;
5343;SDS011;2694;48.954;8.928;2023-11-19T14:41:50;26.77;;;13.02;;
5343;SDS011;2694;48.954;8.928;2023-11-19T14:44:18;2.13;;;0.60;;
5343;SDS011;2694;48.954;8.928;2023-11-19T14:46:46;3.33;;;1.00;;
5343;SDS011;2694;48.954;8.928;2023-11-19T14:49:13;2.17;;;0.88;;
5343;SDS011;2694;48.954;8.928;2023-11-19T14:51:40;2.95;;;0.70;;
5343;SDS011;2694;48.954;8.928;2023-11-19T14:54:07;2.30;;;0.75;;
5343;SDS011;2694;48.954;8.928;2023-11-19T14:56:35;3.65;;;1.30;;
5343;SDS011;2694;48.954;8.928;2023-11-19T14:59:03;2.47;;;0.70;;
5343;SDS011;2694;48.954;8.928;2023-11-19T15:01:30;2.35;;;0.93;;
5343;SDS011;2694;48.954;8.928;2023-11-19T15:03:57;5.53;;;1.50;;
5343;SDS011;2694;48.954;8.928;2023-11-19T15:06:24;8.70;;;1.70;;
5343;SDS011;2694;48.954;8.928;2023-11-19T15:08:57;3.13;;;1.20;;
5343;SDS011;2694;48.954;8.928;2023-11-19T15:11:42;5.55;;;1.70;;
5343;SDS011;2694;48.954;8.928;2023-11-19T15:14:11;4.22;;;1.30;;
5343;SDS011;2694;48.954;8.928;2023-11-19T15:16:40;3.47;;;1.10;;
5343;SDS011;2694;48.954;8.928;2023-11-19T15:19:07;4.30;;;1.17;;
5343;SDS011;2694;48.954;8.928;2023-11-19T15:21:34;5.07;;;1.67;;
5343;SDS011;2694;48.954;8.928;2023-11-19T15:24:01;2.60;;;0.70;;
5343;SDS011;2694;48.954;8.928;2023-11-19T15:26:29;1.40;;;0.63;;
5343;SDS011;2694;48.954;8.928;2023-11-19T15:28:58;2.03;;;0.90;;
5343;SDS011;2694;48.954;8.928;2023-11-19T15:31:25;1.70;;;0.70;;
5343;SDS011;2694;48.954;8.928;2023-11-19T15:33:52;2.72;;;0.90;;
5343;SDS011;2694;48.954;8.928;2023-11-19T15:36:19;2.07;;;0.80;;